createdAt,value
2019-05-29T00:03:42.278Z,11.00
2019-05-29T00:08:46.626Z,10.90
2019-05-29T00:13:50.963Z,10.90
2019-05-29T00:18:58.261Z,10.90
2019-05-29T00:24:01.407Z,10.80
2019-05-29T00:29:05.757Z,10.80
2019-05-29T00:34:11.267Z,10.80
2019-05-29T00:39:16.826Z,10.80
2019-05-29T00:44:33.592Z,10.80
2019-05-29T00:49:27.563Z,10.80
2019-05-29T00:54:31.919Z,10.80
2019-05-29T00:59:36.317Z,10.80
2019-05-29T01:04:40.653Z,10.80
2019-05-29T01:09:44.977Z,10.80
2019-05-29T01:14:50.582Z,10.80
2019-05-29T01:19:55.656Z,10.70
2019-05-29T01:25:00.007Z,10.60
2019-05-29T01:30:07.856Z,10.50
2019-05-29T01:35:13.683Z,10.50
2019-05-29T01:40:23.173Z,10.40
2019-05-29T01:45:24.363Z,10.30
2019-05-29T01:50:28.706Z,10.30
2019-05-29T01:55:33.528Z,10.20
2019-05-29T02:00:38.693Z,10.20
2019-05-29T02:05:43.033Z,10.20
2019-05-29T02:10:48.443Z,10.20
2019-05-29T02:15:52.788Z,10.20
2019-05-29T02:20:57.154Z,10.20
2019-05-29T02:26:03.619Z,10.10
2019-05-29T02:31:07.976Z,10.20
2019-05-29T02:36:12.402Z,10.00
2019-05-29T02:41:18.915Z,10.00
2019-05-29T02:46:23.987Z,10.00
2019-05-29T02:51:37.827Z,9.90
2019-05-29T02:56:42.877Z,9.90
2019-05-29T03:01:47.302Z,9.80
2019-05-29T03:06:52.759Z,9.90
2019-05-29T03:12:00.065Z,9.80
2019-05-29T03:17:03.123Z,9.90
2019-05-29T03:22:07.546Z,9.80
2019-05-29T03:27:11.974Z,9.80
2019-05-29T03:32:17.178Z,9.80
2019-05-29T03:37:21.529Z,9.80
2019-05-29T03:42:26.455Z,9.90
2019-05-29T03:47:31.522Z,9.90
2019-05-29T03:52:38.636Z,10.00
2019-05-29T03:57:43.054Z,10.10
2019-05-29T04:02:47.402Z,10.20
2019-05-29T04:07:51.756Z,10.20
2019-05-29T04:12:56.715Z,10.30
2019-05-29T04:18:03.334Z,10.30
2019-05-29T04:23:08.310Z,10.30
2019-05-29T04:28:12.746Z,10.30
2019-05-29T04:33:17.146Z,10.30
2019-05-29T04:38:21.499Z,10.30
2019-05-29T04:43:25.905Z,10.30
2019-05-29T04:48:31.461Z,10.40
2019-05-29T04:53:39.734Z,10.60
2019-05-29T04:58:44.047Z,10.70
2019-05-29T05:03:48.409Z,10.70
2019-05-29T05:08:52.746Z,10.50
2019-05-29T05:13:57.114Z,10.50
2019-05-29T05:19:01.471Z,10.60
2019-05-29T05:24:05.871Z,10.70
2019-05-29T05:29:10.267Z,10.90
2019-05-29T05:34:17.563Z,10.90
2019-05-29T05:39:22.141Z,10.90
2019-05-29T05:44:26.905Z,11.00
2019-05-29T05:49:31.344Z,11.20
2019-05-29T05:54:35.667Z,11.40
2019-05-29T05:59:40.018Z,11.80
2019-05-29T06:04:44.459Z,11.70
2019-05-29T06:09:48.862Z,11.60
2019-05-29T06:14:53.193Z,11.80
2019-05-29T06:19:57.547Z,12.00
2019-05-29T06:25:03.435Z,12.00
2019-05-29T06:30:08.884Z,11.80
2019-05-29T06:35:13.709Z,11.80
2019-05-29T06:40:33.972Z,12.10
2019-05-29T06:45:39.857Z,12.20
2019-05-29T06:50:44.568Z,12.50
2019-05-29T06:55:54.279Z,12.80
2019-05-29T07:00:55.062Z,12.70
2019-05-29T07:05:59.450Z,12.50
2019-05-29T07:11:03.788Z,12.80
2019-05-29T07:16:08.134Z,12.60
2019-05-29T07:21:12.491Z,12.50
2019-05-29T07:26:17.391Z,12.60
2019-05-29T07:31:21.742Z,13.00
2019-05-29T07:36:26.237Z,13.40
2019-05-29T07:41:30.595Z,13.60
2019-05-29T07:46:34.955Z,13.70
2019-05-29T07:51:40.491Z,14.00
2019-05-29T07:56:49.322Z,14.20
2019-05-29T08:01:53.675Z,14.20
2019-05-29T08:06:58.041Z,13.70
2019-05-29T08:12:02.534Z,14.10
2019-05-29T08:17:08.616Z,14.70
2019-05-29T08:22:30.349Z,14.50
2019-05-29T08:27:24.071Z,14.40
2019-05-29T08:32:36.416Z,15.00
2019-05-29T08:37:40.852Z,15.40
2019-05-29T08:42:47.301Z,15.20
2019-05-29T08:48:04.586Z,15.60
2019-05-29T08:53:09.022Z,16.20
2019-05-29T08:58:13.359Z,15.80
2019-05-29T09:03:21.845Z,15.10
2019-05-29T09:08:28.890Z,15.00
2019-05-29T09:13:35.205Z,15.50
2019-05-29T09:18:40.296Z,16.00
2019-05-29T09:23:44.647Z,15.10
2019-05-29T09:28:49.095Z,14.30
2019-05-29T09:33:53.485Z,14.50
2019-05-29T09:38:57.880Z,14.90
2019-05-29T09:44:02.318Z,15.30
2019-05-29T09:49:06.784Z,15.70
2019-05-29T09:54:11.292Z,15.70
2019-05-29T09:59:15.719Z,15.80
2019-05-29T10:04:20.061Z,16.50
2019-05-29T10:09:24.852Z,15.90
2019-05-29T10:14:29.214Z,16.20
2019-05-29T10:19:33.614Z,16.70
2019-05-29T10:24:44.087Z,16.40
2019-05-29T10:29:51.700Z,16.50
2019-05-29T10:34:55.821Z,16.90
2019-05-29T10:40:00.247Z,16.60
2019-05-29T10:45:09.383Z,16.40
2019-05-29T10:50:15.871Z,17.00
2019-05-29T10:55:23.391Z,17.00
2019-05-29T11:00:27.727Z,17.60
2019-05-29T11:05:32.804Z,17.90
2019-05-29T11:10:37.819Z,17.20
2019-05-29T11:15:42.186Z,16.30
2019-05-29T11:20:49.331Z,16.10
2019-05-29T11:25:54.446Z,16.40
2019-05-29T11:31:05.226Z,16.80
2019-05-29T11:36:10.738Z,17.20
2019-05-29T11:41:25.663Z,17.60
2019-05-29T11:46:18.335Z,17.50
2019-05-29T11:51:23.874Z,16.80
2019-05-29T11:56:28.539Z,16.70
2019-05-29T12:01:48.966Z,16.90
2019-05-29T12:06:40.917Z,17.60
2019-05-29T12:11:45.325Z,17.40
2019-05-29T12:16:49.740Z,17.80
2019-05-29T12:21:54.466Z,18.10
2019-05-29T12:26:58.940Z,17.80
2019-05-29T12:32:08.242Z,17.70
2019-05-29T12:37:09.585Z,18.40
2019-05-29T12:42:14.064Z,19.20
2019-05-29T12:47:18.435Z,19.90
2019-05-29T12:52:22.768Z,20.70
2019-05-29T12:57:27.147Z,20.10
2019-05-29T13:02:31.523Z,19.80
2019-05-29T13:07:35.940Z,20.40
2019-05-29T13:12:40.352Z,20.80
2019-05-29T13:17:44.811Z,21.80
2019-05-29T13:22:50.139Z,22.60
2019-05-29T13:27:57.333Z,22.60
2019-05-29T13:33:03.607Z,22.30
2019-05-29T13:38:07.370Z,22.90
2019-05-29T13:43:15.570Z,24.60
2019-05-29T13:48:18.095Z,26.00
2019-05-29T13:53:22.533Z,24.80
2019-05-29T13:58:27.066Z,25.10
2019-05-29T14:08:35.425Z,27.80
2019-05-29T14:13:39.841Z,27.70
2019-05-29T14:18:44.309Z,27.60
2019-05-29T14:23:48.719Z,30.60
2019-05-29T14:28:53.088Z,31.30
2019-05-29T14:34:00.923Z,32.30
2019-05-29T14:39:07.727Z,35.40
2019-05-29T14:44:12.163Z,30.20
2019-05-29T14:49:16.675Z,27.40
2019-05-29T14:54:21.229Z,22.40
2019-05-29T14:59:25.567Z,22.00
2019-05-29T15:04:29.898Z,25.50
2019-05-29T15:09:34.261Z,23.50
2019-05-29T15:14:38.625Z,22.00
2019-05-29T15:19:43.082Z,24.20
2019-05-29T15:25:01.362Z,27.00
2019-05-29T15:29:53.605Z,29.40
2019-05-29T15:34:59.584Z,27.70
2019-05-29T15:40:06.965Z,22.80
2019-05-29T15:45:14.034Z,20.60
2019-05-29T15:50:19.371Z,19.60
2019-05-29T15:55:33.258Z,19.90
2019-05-29T16:00:30.840Z,19.80
2019-05-29T16:05:35.175Z,19.70
2019-05-29T16:10:43.884Z,19.70
2019-05-29T16:15:48.218Z,19.30
2019-05-29T16:20:52.562Z,18.80
2019-05-29T16:25:56.948Z,18.80
2019-05-29T16:31:01.314Z,18.80
2019-05-29T16:36:05.647Z,18.70
2019-05-29T16:41:09.988Z,18.50
2019-05-29T16:46:18.460Z,18.10
2019-05-29T16:51:20.920Z,17.80
2019-05-29T16:56:25.551Z,17.80
2019-05-29T17:01:30.072Z,17.90
2019-05-29T17:06:34.619Z,18.00
2019-05-29T17:11:38.963Z,18.10
2019-05-29T17:16:43.317Z,18.10
2019-05-29T17:21:48.097Z,17.90
2019-05-29T17:26:53.674Z,17.80
2019-05-29T17:31:58.011Z,17.70
2019-05-29T17:37:02.372Z,17.50
2019-05-29T17:42:06.708Z,17.40
2019-05-29T17:47:11.071Z,17.50
2019-05-29T17:52:17.764Z,17.60
2019-05-29T17:57:22.179Z,17.40
2019-05-29T18:02:27.621Z,17.20
2019-05-29T18:07:32.230Z,17.10
2019-05-29T18:12:38.068Z,17.00
2019-05-29T18:17:44.343Z,16.80
2019-05-29T18:22:49.234Z,16.80
2019-05-29T18:27:53.846Z,16.70
2019-05-29T18:32:58.231Z,16.50
2019-05-29T18:38:02.608Z,16.40
2019-05-29T18:43:07.374Z,16.30
2019-05-29T18:48:11.901Z,16.20
2019-05-29T18:53:16.304Z,16.00
2019-05-29T18:58:22.205Z,15.80
2019-05-29T19:03:29.613Z,15.60
2019-05-29T19:08:35.687Z,15.50
2019-05-29T19:13:42.210Z,15.30
2019-05-29T19:18:46.599Z,15.20
2019-05-29T19:23:50.974Z,15.00
2019-05-29T19:28:55.431Z,14.90
2019-05-29T19:33:59.827Z,14.80
2019-05-29T19:39:07.122Z,14.60
2019-05-29T19:44:11.602Z,14.50
2019-05-29T19:49:16.165Z,14.40
2019-05-29T19:54:21.804Z,14.30
2019-05-29T19:59:27.994Z,14.20
2019-05-29T20:04:34.715Z,14.10
2019-05-29T20:09:40.109Z,13.90
2019-05-29T20:14:44.509Z,13.80
2019-05-29T20:19:48.884Z,13.60
2019-05-29T20:24:54.836Z,13.50
2019-05-29T20:29:59.185Z,13.40
2019-05-29T20:35:04.758Z,13.30
2019-05-29T20:40:10.215Z,13.20
2019-05-29T20:45:15.605Z,13.00
2019-05-29T20:50:20.062Z,12.90
2019-05-29T20:55:24.422Z,12.70
2019-05-29T21:00:28.828Z,12.50
2019-05-29T21:05:34.632Z,12.40
2019-05-29T21:10:40.226Z,12.20
2019-05-29T21:15:45.655Z,12.10
2019-05-29T21:20:50.080Z,11.90
2019-05-29T21:25:54.412Z,11.70
2019-05-29T21:30:58.770Z,11.60
2019-05-29T21:36:04.415Z,11.50
2019-05-29T21:41:08.771Z,11.40
2019-05-29T21:46:13.140Z,11.30
2019-05-29T21:51:18.460Z,11.10
2019-05-29T21:56:24.068Z,11.10
2019-05-29T22:01:28.931Z,10.90
2019-05-29T22:06:33.287Z,10.90
2019-05-29T22:11:37.688Z,10.90
2019-05-29T22:16:43.131Z,10.90
2019-05-29T22:21:47.646Z,10.80
2019-05-29T22:26:53.131Z,10.90
2019-05-29T22:31:57.737Z,11.10
2019-05-29T22:37:02.085Z,11.10
2019-05-29T22:42:07.684Z,11.10
2019-05-29T22:47:12.056Z,11.00
2019-05-29T22:52:18.729Z,10.90
2019-05-29T22:57:23.065Z,10.80
2019-05-29T23:02:27.562Z,10.70
2019-05-29T23:07:32.118Z,10.60
2019-05-29T23:12:36.493Z,10.50
2019-05-29T23:17:40.899Z,10.40
2019-05-29T23:22:46.330Z,10.30
2019-05-29T23:27:52.768Z,10.30
2019-05-29T23:32:58.989Z,10.20
2019-05-29T23:38:03.591Z,10.10
2019-05-29T23:43:09.103Z,10.10
2019-05-29T23:48:13.439Z,10.00
2019-05-29T23:53:17.850Z,9.90
2019-05-29T23:58:23.411Z,9.90
